ADDS METAR Data INFO
IDs: Format: Raw Decoded Include TAF

Data at: 2055 UTC 24 Jun 2017

KBAZ 242051Z 06013KT 10SM CLR 28/19 A3002 RMK AO2 SLP158 60000 T02780194 58028
KBAZ 241951Z 09014KT 10SM BKN042 28/20 A3008 RMK AO2 RAB07E17 SLP177 P0000 T02780200
KBAZ 241851Z 06016KT 10SM FEW040 OVC060 27/19 A3012 RMK AO2 LTG DSNT S AND SW SLP192 T02720194
KBAZ 241751Z 03017G26KT 10SM SCT026 SCT033 BKN110 28/20 A3011 RMK AO2 PK WND 04026/1748 LTG DSNT E-SW SLP187 T02780200 10306 20256 51016
KBAZ 241735Z 02018G25KT 10SM BKN026 27/20 A3012 RMK AO2 LTG DSNT E-SW T02720200
KBAZ 241651Z 03012KT 10SM CLR 31/22 A3008 RMK AO2 LTG DSNT E-SW SLP175 T03060217
KBAZ 241551Z 04014KT 10SM SCT020 SCT031 29/23 A3006 RMK AO2 LTG DSNT E-S SLP169 T02940233
KBAZ 241458Z 02010KT 9SM FEW013 BKN032 29/24 A3004 RMK AO2 LTG DSNT E AND SE T02890244
KBAZ 241451Z 01009KT 5SM BR BKN009 BKN015 29/24 A3003 RMK AO2 LTG DSNT E AND SE SLP161 T02890244 53019
KBAZ 241402Z 09003KT 5SM BR BKN009 BKN015 28/24 A3001 RMK AO2 T02780244
KBAZ 241351Z VRB03KT 7SM FEW009 28/24 A3000 RMK AO2 SLP150 T02780244
KBAZ 241324Z 12005KT 3SM BR FEW006 SCT019 27/25 A2999 RMK AO2 T02720250
KBAZ 241309Z 12005KT 4SM BR SCT006 BKN019 27/25 A2999 RMK AO2 T02670250
KBAZ 241258Z 13007KT 4SM BR BKN005 OVC023 26/24 A2998 RMK AO2 CIG 004V009 T02610244
KBAZ 241251Z 11006KT 2 1/2SM BR OVC005 26/24 A2998 RMK AO2 SLP142 T02610244
KBAZ 241159Z 07005KT 2 1/2SM BR BKN008 BKN011 OVC031 26/24 A2998 RMK AO2 T02560239
KBAZ 241151Z AUTO 08003KT 4SM BR SCT008 BKN011 OVC031 26/24 A2998 RMK AO2 SLP140 T02560239 10261 20250 53019
KBAZ 241137Z AUTO 07003KT 5SM BR SCT006 BKN011 OVC024 26/24 A2998 RMK AO2 CIG 008V011 T02560239
KBAZ 241051Z AUTO 16003KT 5SM BR OVC008 26/24 A2995 RMK AO2 SLP133 T02610244
KBAZ 240958Z AUTO 00000KT 4SM BR OVC008 26/24 A2994 RMK AO2 CIG 007V013 T02560239
KBAZ 240951Z AUTO 29003KT 4SM BR OVC010 25/24 A2994 RMK AO2 SLP128 T02500239
KBAZ 240933Z AUTO 00000KT 5SM BR BKN010 OVC021 25/23 A2993 RMK AO2 T02500233
KBAZ 240851Z AUTO 15003KT 5SM BR FEW013 BKN022 25/23 A2992 RMK AO2 SLP121 T02500233 55007
KBAZ 240836Z AUTO 15004KT 5SM BR SCT012 BKN022 25/23 A2992 RMK AO2 T02500233
KBAZ 240826Z AUTO 16004KT 5SM BR BKN013 BKN019 26/23 A2992 RMK AO2 T02560233
KBAZ 240751Z AUTO 18003KT 6SM BR BKN015 BKN022 26/23 A2992 RMK AO2 SLP122 T02560233
KBAZ 240737Z AUTO 00000KT 6SM BR BKN015 BKN022 26/23 A2993 RMK AO2 T02560233
KBAZ 240701Z AUTO 18005KT 5SM BR BKN014 25/23 A2994 RMK AO2 T02500233
KBAZ 240651Z AUTO 18005KT 6SM BR SCT014 26/23 A2994 RMK AO2 SLP128 T02560233
KBAZ 240551Z AUTO 18006KT 6SM HZ FEW018 26/23 A2993 RMK AO2 SLP124 T02610233 10367 20261 403890222 51031
KBAZ 240451Z AUTO 16005KT 7SM CLR 27/23 A2993 RMK AO2 SLP123 T02720233
KBAZ 240351Z AUTO 15011KT 8SM CLR 29/24 A2987 RMK AO2 SLP106 T02890239
KBAZ 240251Z AUTO 14012KT 10SM CLR 31/23 A2984 RMK AO2 SLP092 T03060228 53031
KBAZ 240151Z AUTO 15012KT 10SM CLR 32/22 A2980 RMK AO2 SLP082 T03220217
KBAZ 240051Z AUTO 15010KT 10SM CLR 34/22 A2977 RMK AO2 SLP068 T03440222
KBAZ 232351Z 15012KT 10SM CLR 37/22 A2974 RMK AO2 SLP062 T03670217 10389 20350 56008
KBAZ 232251Z 15009KT 10SM CLR 38/21 A2975 RMK AO2 SLP062 T03830211
KBAZ 232151Z 14009KT 10SM CLR 38/21 A2975 RMK AO2 SLP063 T03830206
KBAZ 232051Z 15008KT 10SM CLR 38/22 A2977 RMK AO2 SLP069 T03830217 58012
KBAZ 231951Z 17008KT 10SM CLR 38/22 A2978 RMK AO2 SLP074 T03780217
KBAZ 231851Z 14012G15KT 10SM CLR 36/22 A2979 RMK AO2 SLP078 T03610217
KBAZ 231751Z 18010KT 10SM CLR 35/22 A2980 RMK AO2 SLP081 T03500222 10356 20233 58002
KBAZ 231651Z 21008KT 10SM CLR 33/23 A2981 RMK AO2 SLP084 T03330228
KBAZ 231551Z 19011KT 10SM CLR 32/23 A2981 RMK AO2 SLP083 T03170228
KBAZ 231451Z 18010KT 10SM FEW019 31/23 A2981 RMK AO2 SLP083 T03060233 52016
KBAZ 231435Z 20008KT 10SM SCT016 29/24 A2980 RMK AO2 T02940239
KBAZ 231422Z 18010KT 10SM BKN016 29/24 A2980 RMK AO2 T02940239
KBAZ 231404Z 19010KT 10SM BKN010 28/24 A2979 RMK AO2 T02830239
KBAZ 231351Z 20011KT 7SM BKN016 28/23 A2979 RMK AO2 SLP078 T02780233
KBAZ 231325Z 18011KT 10SM BKN012 27/24 A2977 RMK AO2 T02720244
KBAZ 231251Z 19006KT 4SM BR OVC008 26/24 A2978 RMK AO2 CIG 007V011 SLP073 T02610244
KBAZ 231207Z 15003KT 5SM BR BKN009 24/22 A2977 RMK AO2 T02390222
KBAZ 231202Z 14003KT 6SM BR SCT009 SCT013 23/22 A2976 RMK AO2 T02330222
KBAZ 231151Z 16005KT 6SM BR FEW025 23/22 A2976 RMK AO2 SLP067 T02330222 10267 20222 53009
KBAZ 231051Z AUTO 00000KT 8SM CLR 23/22 A2975 RMK AO2 SLP064 T02330222
KBAZ 230951Z AUTO 14004KT 9SM CLR 24/22 A2974 RMK AO2 SLP059 T02390222


Page loaded:  20:55 UTC  |   01:55 PM Pacific  |   02:55 PM Mountain  |   03:55 PM Central  |   04:55 PM Eastern

 

ADVISORIES

FORECASTS

FORECASTS

OBSERVATIONS

USER TOOLS

ABOUT US